sensor_id;sensor_type;location;lat;lon;timestamp;P1;durP1;ratioP1;P2;durP2;ratioP2
42244;SDS011;27912;51.828;5.688;2022-07-17T00:02:10;3.75;;;0.40;;
42244;SDS011;27912;51.828;5.688;2022-07-17T00:04:36;5.38;;;0.50;;
42244;SDS011;27912;51.828;5.688;2022-07-17T00:07:02;4.68;;;0.50;;
42244;SDS011;27912;51.828;5.688;2022-07-17T00:09:27;4.10;;;0.50;;
42244;SDS011;27912;51.828;5.688;2022-07-17T00:11:53;3.92;;;0.40;;
42244;SDS011;27912;51.828;5.688;2022-07-17T00:14:18;2.50;;;0.50;;
42244;SDS011;27912;51.828;5.688;2022-07-17T00:16:44;1.67;;;0.38;;
42244;SDS011;27912;51.828;5.688;2022-07-17T00:19:09;5.03;;;0.50;;
42244;SDS011;27912;51.828;5.688;2022-07-17T00:21:35;2.90;;;0.40;;
42244;SDS011;27912;51.828;5.688;2022-07-17T00:24:01;7.45;;;0.60;;
42244;SDS011;27912;51.828;5.688;2022-07-17T00:26:26;4.10;;;0.50;;
42244;SDS011;27912;51.828;5.688;2022-07-17T00:28:52;2.22;;;0.50;;
42244;SDS011;27912;51.828;5.688;2022-07-17T00:31:17;8.23;;;0.70;;
42244;SDS011;27912;51.828;5.688;2022-07-17T00:33:43;4.47;;;0.65;;
42244;SDS011;27912;51.828;5.688;2022-07-17T00:36:08;5.70;;;0.50;;
42244;SDS011;27912;51.828;5.688;2022-07-17T00:38:34;6.75;;;0.60;;
42244;SDS011;27912;51.828;5.688;2022-07-17T00:41:00;6.53;;;0.73;;
42244;SDS011;27912;51.828;5.688;2022-07-17T00:43:25;5.60;;;0.40;;
42244;SDS011;27912;51.828;5.688;2022-07-17T00:45:58;5.30;;;0.95;;
42244;SDS011;27912;51.828;5.688;2022-07-17T00:48:25;4.35;;;0.50;;
42244;SDS011;27912;51.828;5.688;2022-07-17T00:50:51;5.13;;;0.55;;
42244;SDS011;27912;51.828;5.688;2022-07-17T00:53:18;4.93;;;0.88;;
42244;SDS011;27912;51.828;5.688;2022-07-17T00:55:44;2.47;;;0.40;;
42244;SDS011;27912;51.828;5.688;2022-07-17T00:58:12;2.25;;;0.60;;
42244;SDS011;27912;51.828;5.688;2022-07-17T01:00:49;5.30;;;0.60;;
42244;SDS011;27912;51.828;5.688;2022-07-17T01:03:16;3.35;;;0.40;;
42244;SDS011;27912;51.828;5.688;2022-07-17T01:05:43;3.97;;;0.40;;
42244;SDS011;27912;51.828;5.688;2022-07-17T01:08:09;3.55;;;0.43;;
42244;SDS011;27912;51.828;5.688;2022-07-17T01:10:34;3.53;;;0.50;;
42244;SDS011;27912;51.828;5.688;2022-07-17T01:13:00;6.53;;;0.50;;
42244;SDS011;27912;51.828;5.688;2022-07-17T01:15:26;5.22;;;0.70;;
42244;SDS011;27912;51.828;5.688;2022-07-17T01:17:52;3.75;;;0.50;;
42244;SDS011;27912;51.828;5.688;2022-07-17T01:20:17;6.78;;;0.60;;
42244;SDS011;27912;51.828;5.688;2022-07-17T01:22:44;5.47;;;0.50;;
42244;SDS011;27912;51.828;5.688;2022-07-17T01:25:12;3.47;;;0.70;;
42244;SDS011;27912;51.828;5.688;2022-07-17T01:27:38;2.95;;;0.40;;
42244;SDS011;27912;51.828;5.688;2022-07-17T01:30:04;4.90;;;0.77;;
42244;SDS011;27912;51.828;5.688;2022-07-17T01:32:34;3.78;;;1.13;;
42244;SDS011;27912;51.828;5.688;2022-07-17T01:35:02;5.03;;;0.63;;
42244;SDS011;27912;51.828;5.688;2022-07-17T01:37:29;2.75;;;0.50;;
42244;SDS011;27912;51.828;5.688;2022-07-17T01:39:54;8.30;;;0.80;;
42244;SDS011;27912;51.828;5.688;2022-07-17T01:42:21;2.05;;;0.50;;
42244;SDS011;27912;51.828;5.688;2022-07-17T01:44:47;4.93;;;0.50;;
42244;SDS011;27912;51.828;5.688;2022-07-17T01:47:13;2.63;;;0.73;;
42244;SDS011;27912;51.828;5.688;2022-07-17T01:49:46;4.15;;;0.65;;
42244;SDS011;27912;51.828;5.688;2022-07-17T01:52:13;4.93;;;0.60;;
42244;SDS011;27912;51.828;5.688;2022-07-17T01:54:39;5.05;;;0.55;;
42244;SDS011;27912;51.828;5.688;2022-07-17T01:57:05;4.35;;;0.55;;
42244;SDS011;27912;51.828;5.688;2022-07-17T01:59:31;12.23;;;1.77;;
42244;SDS011;27912;51.828;5.688;2022-07-17T02:01:56;4.30;;;0.80;;
42244;SDS011;27912;51.828;5.688;2022-07-17T02:04:22;4.95;;;0.52;;
42244;SDS011;27912;51.828;5.688;2022-07-17T02:06:48;4.68;;;0.65;;
42244;SDS011;27912;51.828;5.688;2022-07-17T02:09:13;6.22;;;0.60;;
42244;SDS011;27912;51.828;5.688;2022-07-17T02:11:39;2.47;;;0.57;;
42244;SDS011;27912;51.828;5.688;2022-07-17T02:14:04;2.75;;;0.50;;
42244;SDS011;27912;51.828;5.688;2022-07-17T02:16:30;2.97;;;0.50;;
42244;SDS011;27912;51.828;5.688;2022-07-17T02:18:55;2.95;;;0.50;;
42244;SDS011;27912;51.828;5.688;2022-07-17T02:21:21;5.20;;;0.70;;
42244;SDS011;27912;51.828;5.688;2022-07-17T02:23:46;3.55;;;0.70;;
42244;SDS011;27912;51.828;5.688;2022-07-17T02:26:12;5.75;;;0.68;;
42244;SDS011;27912;51.828;5.688;2022-07-17T02:28:37;6.75;;;1.08;;
42244;SDS011;27912;51.828;5.688;2022-07-17T02:31:03;9.95;;;0.80;;
42244;SDS011;27912;51.828;5.688;2022-07-17T02:33:29;6.10;;;0.90;;
42244;SDS011;27912;51.828;5.688;2022-07-17T02:35:54;6.18;;;0.88;;
42244;SDS011;27912;51.828;5.688;2022-07-17T02:38:20;3.97;;;0.63;;
42244;SDS011;27912;51.828;5.688;2022-07-17T02:40:45;3.70;;;0.60;;
42244;SDS011;27912;51.828;5.688;2022-07-17T02:43:11;2.17;;;0.63;;
42244;SDS011;27912;51.828;5.688;2022-07-17T02:45:37;5.38;;;0.63;;
42244;SDS011;27912;51.828;5.688;2022-07-17T02:48:02;4.45;;;0.68;;
42244;SDS011;27912;51.828;5.688;2022-07-17T02:50:28;2.22;;;0.60;;
42244;SDS011;27912;51.828;5.688;2022-07-17T02:52:53;2.95;;;0.60;;
42244;SDS011;27912;51.828;5.688;2022-07-17T02:55:20;3.22;;;0.63;;
42244;SDS011;27912;51.828;5.688;2022-07-17T02:57:45;4.68;;;1.05;;
42244;SDS011;27912;51.828;5.688;2022-07-17T03:00:14;3.95;;;1.02;;
42244;SDS011;27912;51.828;5.688;2022-07-17T03:02:42;6.25;;;0.70;;
42244;SDS011;27912;51.828;5.688;2022-07-17T03:05:08;4.57;;;0.73;;
42244;SDS011;27912;51.828;5.688;2022-07-17T03:07:35;3.15;;;0.60;;
42244;SDS011;27912;51.828;5.688;2022-07-17T03:10:00;3.25;;;0.70;;
42244;SDS011;27912;51.828;5.688;2022-07-17T03:12:26;4.80;;;0.63;;
42244;SDS011;27912;51.828;5.688;2022-07-17T03:14:52;3.70;;;0.65;;
42244;SDS011;27912;51.828;5.688;2022-07-17T03:17:18;3.70;;;0.85;;
42244;SDS011;27912;51.828;5.688;2022-07-17T03:19:43;1.38;;;0.47;;
42244;SDS011;27912;51.828;5.688;2022-07-17T03:22:09;6.30;;;0.70;;
42244;SDS011;27912;51.828;5.688;2022-07-17T03:24:34;5.28;;;0.60;;
42244;SDS011;27912;51.828;5.688;2022-07-17T03:27:00;5.32;;;0.70;;
42244;SDS011;27912;51.828;5.688;2022-07-17T03:29:25;4.45;;;0.95;;
42244;SDS011;27912;51.828;5.688;2022-07-17T03:31:51;4.45;;;0.70;;
42244;SDS011;27912;51.828;5.688;2022-07-17T03:34:16;2.35;;;0.80;;
42244;SDS011;27912;51.828;5.688;2022-07-17T03:36:42;5.10;;;1.02;;
42244;SDS011;27912;51.828;5.688;2022-07-17T03:39:08;3.17;;;0.68;;
42244;SDS011;27912;51.828;5.688;2022-07-17T03:41:33;2.75;;;0.80;;
42244;SDS011;27912;51.828;5.688;2022-07-17T03:43:59;4.45;;;0.70;;
42244;SDS011;27912;51.828;5.688;2022-07-17T03:46:25;8.57;;;1.20;;
42244;SDS011;27912;51.828;5.688;2022-07-17T03:48:50;6.00;;;0.90;;
42244;SDS011;27912;51.828;5.688;2022-07-17T03:51:16;5.88;;;0.80;;
42244;SDS011;27912;51.828;5.688;2022-07-17T03:53:42;3.47;;;0.80;;
42244;SDS011;27912;51.828;5.688;2022-07-17T03:56:07;4.50;;;0.93;;
42244;SDS011;27912;51.828;5.688;2022-07-17T03:58:33;2.65;;;0.65;;
42244;SDS011;27912;51.828;5.688;2022-07-17T04:00:59;2.42;;;0.52;;
42244;SDS011;27912;51.828;5.688;2022-07-17T04:03:25;5.15;;;0.60;;
42244;SDS011;27912;51.828;5.688;2022-07-17T04:05:51;3.42;;;0.90;;
42244;SDS011;27912;51.828;5.688;2022-07-17T04:08:17;1.73;;;0.50;;
42244;SDS011;27912;51.828;5.688;2022-07-17T04:10:43;4.13;;;0.68;;
42244;SDS011;27912;51.828;5.688;2022-07-17T04:13:10;3.65;;;0.80;;
42244;SDS011;27912;51.828;5.688;2022-07-17T04:15:35;3.63;;;0.98;;
42244;SDS011;27912;51.828;5.688;2022-07-17T04:18:20;4.18;;;0.82;;
42244;SDS011;27912;51.828;5.688;2022-07-17T04:20:47;4.90;;;0.90;;
42244;SDS011;27912;51.828;5.688;2022-07-17T04:23:13;3.83;;;0.90;;
42244;SDS011;27912;51.828;5.688;2022-07-17T04:25:39;4.05;;;0.80;;
42244;SDS011;27912;51.828;5.688;2022-07-17T04:28:05;3.22;;;0.70;;
42244;SDS011;27912;51.828;5.688;2022-07-17T04:30:32;7.53;;;0.75;;
42244;SDS011;27912;51.828;5.688;2022-07-17T04:32:57;12.93;;;0.88;;
42244;SDS011;27912;51.828;5.688;2022-07-17T04:35:23;4.45;;;0.80;;
42244;SDS011;27912;51.828;5.688;2022-07-17T04:37:48;5.82;;;0.85;;
42244;SDS011;27912;51.828;5.688;2022-07-17T04:40:14;6.60;;;0.80;;
42244;SDS011;27912;51.828;5.688;2022-07-17T04:42:40;2.58;;;0.90;;
42244;SDS011;27912;51.828;5.688;2022-07-17T04:45:05;4.97;;;1.27;;
42244;SDS011;27912;51.828;5.688;2022-07-17T04:47:32;6.00;;;1.83;;
42244;SDS011;27912;51.828;5.688;2022-07-17T04:49:59;3.85;;;1.20;;
42244;SDS011;27912;51.828;5.688;2022-07-17T04:52:24;4.70;;;1.33;;
42244;SDS011;27912;51.828;5.688;2022-07-17T04:54:50;5.72;;;1.70;;
42244;SDS011;27912;51.828;5.688;2022-07-17T04:57:15;5.03;;;0.60;;
42244;SDS011;27912;51.828;5.688;2022-07-17T04:59:41;4.35;;;1.08;;
42244;SDS011;27912;51.828;5.688;2022-07-17T05:02:06;9.85;;;1.40;;
42244;SDS011;27912;51.828;5.688;2022-07-17T05:04:32;7.97;;;1.23;;
42244;SDS011;27912;51.828;5.688;2022-07-17T05:06:58;5.22;;;0.80;;
42244;SDS011;27912;51.828;5.688;2022-07-17T05:09:24;3.05;;;0.63;;
42244;SDS011;27912;51.828;5.688;2022-07-17T05:11:50;3.05;;;0.80;;
42244;SDS011;27912;51.828;5.688;2022-07-17T05:14:16;11.18;;;1.40;;
42244;SDS011;27912;51.828;5.688;2022-07-17T05:16:42;4.55;;;0.80;;
42244;SDS011;27912;51.828;5.688;2022-07-17T05:19:08;8.07;;;0.88;;
42244;SDS011;27912;51.828;5.688;2022-07-17T05:21:33;5.47;;;1.45;;
42244;SDS011;27912;51.828;5.688;2022-07-17T05:23:59;7.18;;;0.73;;
42244;SDS011;27912;51.828;5.688;2022-07-17T05:26:24;6.68;;;1.60;;
42244;SDS011;27912;51.828;5.688;2022-07-17T05:28:51;3.38;;;0.70;;
42244;SDS011;27912;51.828;5.688;2022-07-17T05:31:16;2.70;;;0.60;;
42244;SDS011;27912;51.828;5.688;2022-07-17T05:33:42;4.80;;;0.90;;
42244;SDS011;27912;51.828;5.688;2022-07-17T05:36:08;4.00;;;0.57;;
42244;SDS011;27912;51.828;5.688;2022-07-17T05:38:33;5.13;;;0.60;;
42244;SDS011;27912;51.828;5.688;2022-07-17T05:40:59;3.85;;;0.52;;
42244;SDS011;27912;51.828;5.688;2022-07-17T05:43:25;3.47;;;0.93;;
42244;SDS011;27912;51.828;5.688;2022-07-17T05:45:54;7.53;;;1.33;;
42244;SDS011;27912;51.828;5.688;2022-07-17T05:48:21;4.97;;;1.15;;
42244;SDS011;27912;51.828;5.688;2022-07-17T05:50:46;6.45;;;1.17;;
42244;SDS011;27912;51.828;5.688;2022-07-17T05:53:12;2.80;;;0.80;;
42244;SDS011;27912;51.828;5.688;2022-07-17T05:55:39;5.18;;;1.13;;
42244;SDS011;27912;51.828;5.688;2022-07-17T05:58:04;4.07;;;0.95;;
42244;SDS011;27912;51.828;5.688;2022-07-17T06:00:30;5.28;;;1.25;;
42244;SDS011;27912;51.828;5.688;2022-07-17T06:02:56;6.18;;;1.13;;
42244;SDS011;27912;51.828;5.688;2022-07-17T06:05:21;7.30;;;1.20;;
42244;SDS011;27912;51.828;5.688;2022-07-17T06:07:47;6.03;;;1.40;;
42244;SDS011;27912;51.828;5.688;2022-07-17T06:10:12;3.80;;;1.25;;
42244;SDS011;27912;51.828;5.688;2022-07-17T06:12:38;7.20;;;1.20;;
42244;SDS011;27912;51.828;5.688;2022-07-17T06:15:04;5.65;;;1.52;;
42244;SDS011;27912;51.828;5.688;2022-07-17T06:17:29;6.07;;;1.38;;
42244;SDS011;27912;51.828;5.688;2022-07-17T06:19:55;6.10;;;1.13;;
42244;SDS011;27912;51.828;5.688;2022-07-17T06:22:20;4.10;;;0.90;;
42244;SDS011;27912;51.828;5.688;2022-07-17T06:24:46;6.05;;;1.30;;
42244;SDS011;27912;51.828;5.688;2022-07-17T06:27:13;5.85;;;0.90;;
42244;SDS011;27912;51.828;5.688;2022-07-17T06:29:39;3.58;;;0.90;;
42244;SDS011;27912;51.828;5.688;2022-07-17T06:32:05;4.20;;;0.70;;
42244;SDS011;27912;51.828;5.688;2022-07-17T06:34:31;6.63;;;0.77;;
42244;SDS011;27912;51.828;5.688;2022-07-17T06:36:56;4.40;;;0.60;;
42244;SDS011;27912;51.828;5.688;2022-07-17T06:39:22;4.13;;;0.80;;
42244;SDS011;27912;51.828;5.688;2022-07-17T06:41:48;6.18;;;0.82;;
42244;SDS011;27912;51.828;5.688;2022-07-17T06:44:13;3.78;;;0.70;;
42244;SDS011;27912;51.828;5.688;2022-07-17T06:46:39;4.68;;;0.50;;
42244;SDS011;27912;51.828;5.688;2022-07-17T06:49:05;5.68;;;0.40;;
42244;SDS011;27912;51.828;5.688;2022-07-17T06:51:30;2.13;;;0.45;;
42244;SDS011;27912;51.828;5.688;2022-07-17T06:53:56;4.53;;;0.68;;
42244;SDS011;27912;51.828;5.688;2022-07-17T06:56:21;7.80;;;0.80;;
42244;SDS011;27912;51.828;5.688;2022-07-17T06:58:47;5.60;;;0.40;;
42244;SDS011;27912;51.828;5.688;2022-07-17T07:01:13;5.22;;;0.60;;
42244;SDS011;27912;51.828;5.688;2022-07-17T07:03:38;7.60;;;0.70;;
42244;SDS011;27912;51.828;5.688;2022-07-17T07:06:04;5.03;;;0.60;;
42244;SDS011;27912;51.828;5.688;2022-07-17T07:08:29;5.63;;;0.50;;
42244;SDS011;27912;51.828;5.688;2022-07-17T07:10:55;5.68;;;0.40;;
42244;SDS011;27912;51.828;5.688;2022-07-17T07:13:21;1.42;;;0.50;;
42244;SDS011;27912;51.828;5.688;2022-07-17T07:15:46;2.58;;;0.40;;
42244;SDS011;27912;51.828;5.688;2022-07-17T07:18:12;5.28;;;0.47;;
42244;SDS011;27912;51.828;5.688;2022-07-17T07:20:37;3.58;;;0.50;;
42244;SDS011;27912;51.828;5.688;2022-07-17T07:23:03;5.78;;;0.55;;
42244;SDS011;27912;51.828;5.688;2022-07-17T07:25:29;5.22;;;0.50;;
42244;SDS011;27912;51.828;5.688;2022-07-17T07:27:55;10.10;;;1.13;;
42244;SDS011;27912;51.828;5.688;2022-07-17T07:30:21;3.97;;;0.63;;
42244;SDS011;27912;51.828;5.688;2022-07-17T07:32:46;10.02;;;0.93;;
42244;SDS011;27912;51.828;5.688;2022-07-17T07:35:12;3.05;;;0.50;;
42244;SDS011;27912;51.828;5.688;2022-07-17T07:37:37;2.03;;;0.30;;
42244;SDS011;27912;51.828;5.688;2022-07-17T07:40:04;6.88;;;0.82;;
42244;SDS011;27912;51.828;5.688;2022-07-17T07:42:30;4.03;;;0.40;;
42244;SDS011;27912;51.828;5.688;2022-07-17T07:44:55;4.63;;;0.57;;
42244;SDS011;27912;51.828;5.688;2022-07-17T07:47:22;3.60;;;0.50;;
42244;SDS011;27912;51.828;5.688;2022-07-17T07:49:48;5.85;;;0.40;;
42244;SDS011;27912;51.828;5.688;2022-07-17T07:52:13;3.08;;;0.45;;
42244;SDS011;27912;51.828;5.688;2022-07-17T07:54:39;6.97;;;0.70;;
42244;SDS011;27912;51.828;5.688;2022-07-17T07:57:04;6.82;;;0.73;;
42244;SDS011;27912;51.828;5.688;2022-07-17T07:59:30;3.38;;;0.60;;
42244;SDS011;27912;51.828;5.688;2022-07-17T08:01:59;5.05;;;0.45;;
42244;SDS011;27912;51.828;5.688;2022-07-17T08:04:25;3.72;;;0.50;;
42244;SDS011;27912;51.828;5.688;2022-07-17T08:06:51;2.67;;;0.40;;
42244;SDS011;27912;51.828;5.688;2022-07-17T08:09:17;6.72;;;0.52;;
42244;SDS011;27912;51.828;5.688;2022-07-17T08:11:42;1.60;;;0.30;;
42244;SDS011;27912;51.828;5.688;2022-07-17T08:14:08;6.13;;;0.30;;
42244;SDS011;27912;51.828;5.688;2022-07-17T08:16:34;3.22;;;0.38;;
42244;SDS011;27912;51.828;5.688;2022-07-17T08:19:00;3.90;;;0.47;;
42244;SDS011;27912;51.828;5.688;2022-07-17T08:21:25;4.95;;;0.30;;
42244;SDS011;27912;51.828;5.688;2022-07-17T08:23:51;2.42;;;0.40;;
42244;SDS011;27912;51.828;5.688;2022-07-17T08:26:16;3.47;;;0.40;;
42244;SDS011;27912;51.828;5.688;2022-07-17T08:28:42;2.10;;;0.40;;
42244;SDS011;27912;51.828;5.688;2022-07-17T08:31:07;4.47;;;0.30;;
42244;SDS011;27912;51.828;5.688;2022-07-17T08:33:33;2.97;;;0.30;;
42244;SDS011;27912;51.828;5.688;2022-07-17T08:35:59;4.50;;;0.30;;
42244;SDS011;27912;51.828;5.688;2022-07-17T08:38:24;1.98;;;0.20;;
42244;SDS011;27912;51.828;5.688;2022-07-17T08:40:51;6.72;;;1.02;;
42244;SDS011;27912;51.828;5.688;2022-07-17T08:43:19;3.95;;;0.50;;
42244;SDS011;27912;51.828;5.688;2022-07-17T08:45:44;3.15;;;0.47;;
42244;SDS011;27912;51.828;5.688;2022-07-17T08:48:12;5.40;;;0.50;;
42244;SDS011;27912;51.828;5.688;2022-07-17T08:50:39;3.65;;;0.40;;
42244;SDS011;27912;51.828;5.688;2022-07-17T08:53:05;3.67;;;0.30;;
42244;SDS011;27912;51.828;5.688;2022-07-17T08:55:31;2.83;;;0.38;;
42244;SDS011;27912;51.828;5.688;2022-07-17T08:57:57;2.97;;;0.80;;
42244;SDS011;27912;51.828;5.688;2022-07-17T09:00:23;3.83;;;0.30;;
42244;SDS011;27912;51.828;5.688;2022-07-17T09:02:57;3.60;;;0.30;;
42244;SDS011;27912;51.828;5.688;2022-07-17T09:05:32;4.28;;;0.40;;
42244;SDS011;27912;51.828;5.688;2022-07-17T09:08:02;5.57;;;0.90;;
42244;SDS011;27912;51.828;5.688;2022-07-17T09:10:29;4.78;;;0.40;;
42244;SDS011;27912;51.828;5.688;2022-07-17T09:12:56;2.67;;;0.40;;
42244;SDS011;27912;51.828;5.688;2022-07-17T09:15:23;2.30;;;0.30;;
42244;SDS011;27912;51.828;5.688;2022-07-17T09:17:54;3.03;;;0.40;;
42244;SDS011;27912;51.828;5.688;2022-07-17T09:20:20;3.35;;;0.40;;
42244;SDS011;27912;51.828;5.688;2022-07-17T09:23:03;5.35;;;0.80;;
42244;SDS011;27912;51.828;5.688;2022-07-17T09:28:00;3.28;;;0.30;;
42244;SDS011;27912;51.828;5.688;2022-07-17T09:30:28;3.45;;;0.45;;
42244;SDS011;27912;51.828;5.688;2022-07-17T09:32:54;3.72;;;0.40;;
42244;SDS011;27912;51.828;5.688;2022-07-17T09:35:20;4.18;;;0.50;;
42244;SDS011;27912;51.828;5.688;2022-07-17T09:37:48;4.43;;;0.38;;
42244;SDS011;27912;51.828;5.688;2022-07-17T09:40:17;4.00;;;0.30;;
42244;SDS011;27912;51.828;5.688;2022-07-17T09:43:01;2.30;;;0.22;;
42244;SDS011;27912;51.828;5.688;2022-07-17T09:45:27;2.03;;;0.30;;
42244;SDS011;27912;51.828;5.688;2022-07-17T09:47:53;2.13;;;0.38;;
42244;SDS011;27912;51.828;5.688;2022-07-17T09:50:19;4.10;;;0.35;;
42244;SDS011;27912;51.828;5.688;2022-07-17T09:52:45;4.68;;;0.30;;
42244;SDS011;27912;51.828;5.688;2022-07-17T09:55:14;3.33;;;0.30;;
42244;SDS011;27912;51.828;5.688;2022-07-17T09:57:41;2.75;;;0.30;;
42244;SDS011;27912;51.828;5.688;2022-07-17T10:00:12;4.63;;;0.40;;
42244;SDS011;27912;51.828;5.688;2022-07-17T10:02:41;2.30;;;0.30;;
42244;SDS011;27912;51.828;5.688;2022-07-17T10:05:11;2.53;;;0.35;;
42244;SDS011;27912;51.828;5.688;2022-07-17T10:07:40;4.55;;;0.38;;
42244;SDS011;27912;51.828;5.688;2022-07-17T10:10:07;5.03;;;0.40;;
42244;SDS011;27912;51.828;5.688;2022-07-17T10:12:36;4.28;;;0.30;;
42244;SDS011;27912;51.828;5.688;2022-07-17T10:15:04;3.80;;;0.35;;
42244;SDS011;27912;51.828;5.688;2022-07-17T10:17:30;2.00;;;0.40;;
42244;SDS011;27912;51.828;5.688;2022-07-17T10:19:56;2.10;;;0.20;;
42244;SDS011;27912;51.828;5.688;2022-07-17T10:22:23;3.15;;;0.30;;
42244;SDS011;27912;51.828;5.688;2022-07-17T10:29:44;4.72;;;0.40;;
42244;SDS011;27912;51.828;5.688;2022-07-17T10:32:18;3.78;;;0.20;;
42244;SDS011;27912;51.828;5.688;2022-07-17T10:34:48;2.15;;;0.30;;
42244;SDS011;27912;51.828;5.688;2022-07-17T10:37:22;1.27;;;0.20;;
42244;SDS011;27912;51.828;5.688;2022-07-17T10:40:11;1.65;;;0.30;;
42244;SDS011;27912;51.828;5.688;2022-07-17T10:45:11;2.90;;;0.30;;
42244;SDS011;27912;51.828;5.688;2022-07-17T10:47:49;3.00;;;0.73;;
42244;SDS011;27912;51.828;5.688;2022-07-17T10:50:24;2.85;;;0.30;;
42244;SDS011;27912;51.828;5.688;2022-07-17T10:53:23;3.63;;;0.40;;
42244;SDS011;27912;51.828;5.688;2022-07-17T10:55:56;1.35;;;0.20;;
42244;SDS011;27912;51.828;5.688;2022-07-17T11:00:59;5.22;;;0.60;;
42244;SDS011;27912;51.828;5.688;2022-07-17T11:03:25;1.80;;;0.40;;
42244;SDS011;27912;51.828;5.688;2022-07-17T11:05:51;2.55;;;0.35;;
42244;SDS011;27912;51.828;5.688;2022-07-17T11:08:17;2.25;;;0.28;;
42244;SDS011;27912;51.828;5.688;2022-07-17T11:10:42;3.22;;;0.30;;
42244;SDS011;27912;51.828;5.688;2022-07-17T11:13:11;4.28;;;0.40;;
42244;SDS011;27912;51.828;5.688;2022-07-17T11:15:45;2.08;;;0.25;;
42244;SDS011;27912;51.828;5.688;2022-07-17T11:18:16;2.03;;;0.60;;
42244;SDS011;27912;51.828;5.688;2022-07-17T11:23:14;2.22;;;0.40;;
42244;SDS011;27912;51.828;5.688;2022-07-17T11:25:40;3.05;;;0.30;;
42244;SDS011;27912;51.828;5.688;2022-07-17T11:28:29;3.70;;;0.40;;
42244;SDS011;27912;51.828;5.688;2022-07-17T11:31:01;3.42;;;0.65;;
42244;SDS011;27912;51.828;5.688;2022-07-17T11:33:28;3.00;;;0.60;;
42244;SDS011;27912;51.828;5.688;2022-07-17T11:35:54;4.45;;;0.30;;
42244;SDS011;27912;51.828;5.688;2022-07-17T11:38:26;3.35;;;0.40;;
42244;SDS011;27912;51.828;5.688;2022-07-17T11:40:53;5.07;;;0.22;;
42244;SDS011;27912;51.828;5.688;2022-07-17T11:43:19;1.25;;;0.30;;
42244;SDS011;27912;51.828;5.688;2022-07-17T11:45:46;2.35;;;0.40;;
42244;SDS011;27912;51.828;5.688;2022-07-17T11:48:12;2.00;;;0.20;;
42244;SDS011;27912;51.828;5.688;2022-07-17T11:50:38;3.00;;;0.30;;
42244;SDS011;27912;51.828;5.688;2022-07-17T11:53:04;2.83;;;0.30;;
42244;SDS011;27912;51.828;5.688;2022-07-17T11:55:40;5.25;;;0.30;;
42244;SDS011;27912;51.828;5.688;2022-07-17T11:58:08;2.83;;;0.40;;
42244;SDS011;27912;51.828;5.688;2022-07-17T12:00:34;3.05;;;0.40;;
42244;SDS011;27912;51.828;5.688;2022-07-17T12:03:00;2.72;;;0.20;;
42244;SDS011;27912;51.828;5.688;2022-07-17T12:05:27;4.10;;;0.30;;
42244;SDS011;27912;51.828;5.688;2022-07-17T12:07:54;1.95;;;0.25;;
42244;SDS011;27912;51.828;5.688;2022-07-17T12:10:21;1.48;;;0.30;;
42244;SDS011;27912;51.828;5.688;2022-07-17T12:15:43;6.60;;;0.20;;
42244;SDS011;27912;51.828;5.688;2022-07-17T12:18:20;2.95;;;0.40;;
42244;SDS011;27912;51.828;5.688;2022-07-17T12:20:49;2.40;;;0.40;;
42244;SDS011;27912;51.828;5.688;2022-07-17T12:23:31;1.52;;;0.40;;
42244;SDS011;27912;51.828;5.688;2022-07-17T12:26:08;2.42;;;0.30;;
42244;SDS011;27912;51.828;5.688;2022-07-17T12:28:36;3.28;;;0.30;;
42244;SDS011;27912;51.828;5.688;2022-07-17T12:31:02;2.72;;;0.30;;
42244;SDS011;27912;51.828;5.688;2022-07-17T12:33:28;0.90;;;0.35;;
42244;SDS011;27912;51.828;5.688;2022-07-17T12:35:54;3.65;;;0.30;;
42244;SDS011;27912;51.828;5.688;2022-07-17T12:38:19;1.48;;;0.20;;
42244;SDS011;27912;51.828;5.688;2022-07-17T12:40:45;2.03;;;0.20;;
42244;SDS011;27912;51.828;5.688;2022-07-17T12:43:11;2.83;;;0.20;;
42244;SDS011;27912;51.828;5.688;2022-07-17T12:45:36;3.22;;;0.30;;
42244;SDS011;27912;51.828;5.688;2022-07-17T12:48:02;2.45;;;0.38;;
42244;SDS011;27912;51.828;5.688;2022-07-17T12:50:27;3.25;;;0.50;;
42244;SDS011;27912;51.828;5.688;2022-07-17T12:52:53;1.00;;;0.30;;
42244;SDS011;27912;51.828;5.688;2022-07-17T12:55:19;4.70;;;0.35;;
42244;SDS011;27912;51.828;5.688;2022-07-17T12:57:45;1.55;;;0.30;;
42244;SDS011;27912;51.828;5.688;2022-07-17T13:00:10;2.08;;;0.40;;
42244;SDS011;27912;51.828;5.688;2022-07-17T13:02:37;3.38;;;0.40;;
42244;SDS011;27912;51.828;5.688;2022-07-17T13:05:02;9.68;;;0.43;;
42244;SDS011;27912;51.828;5.688;2022-07-17T13:07:28;2.28;;;0.30;;
42244;SDS011;27912;51.828;5.688;2022-07-17T13:09:53;1.48;;;0.30;;
42244;SDS011;27912;51.828;5.688;2022-07-17T13:12:20;5.28;;;0.40;;
42244;SDS011;27912;51.828;5.688;2022-07-17T13:14:46;1.27;;;0.30;;
42244;SDS011;27912;51.828;5.688;2022-07-17T13:17:11;2.08;;;0.35;;
42244;SDS011;27912;51.828;5.688;2022-07-17T13:19:37;2.55;;;0.40;;
42244;SDS011;27912;51.828;5.688;2022-07-17T13:22:02;2.40;;;0.30;;
42244;SDS011;27912;51.828;5.688;2022-07-17T13:24:29;2.65;;;0.30;;
42244;SDS011;27912;51.828;5.688;2022-07-17T13:26:55;3.60;;;0.40;;
42244;SDS011;27912;51.828;5.688;2022-07-17T13:29:20;2.15;;;0.50;;
42244;SDS011;27912;51.828;5.688;2022-07-17T13:31:46;1.98;;;0.40;;
42244;SDS011;27912;51.828;5.688;2022-07-17T13:34:12;3.22;;;0.40;;
42244;SDS011;27912;51.828;5.688;2022-07-17T13:36:37;3.08;;;0.40;;
42244;SDS011;27912;51.828;5.688;2022-07-17T13:39:03;1.08;;;0.30;;
42244;SDS011;27912;51.828;5.688;2022-07-17T13:41:29;3.15;;;0.30;;
42244;SDS011;27912;51.828;5.688;2022-07-17T13:43:55;3.35;;;0.50;;
42244;SDS011;27912;51.828;5.688;2022-07-17T13:46:21;1.85;;;0.30;;
42244;SDS011;27912;51.828;5.688;2022-07-17T13:48:47;1.60;;;0.40;;
42244;SDS011;27912;51.828;5.688;2022-07-17T13:51:13;3.55;;;0.45;;
42244;SDS011;27912;51.828;5.688;2022-07-17T13:53:39;2.22;;;0.30;;
42244;SDS011;27912;51.828;5.688;2022-07-17T13:56:04;2.88;;;0.30;;
42244;SDS011;27912;51.828;5.688;2022-07-17T13:58:30;3.35;;;0.60;;
42244;SDS011;27912;51.828;5.688;2022-07-17T14:00:57;0.93;;;0.20;;
42244;SDS011;27912;51.828;5.688;2022-07-17T14:03:23;1.63;;;0.40;;
42244;SDS011;27912;51.828;5.688;2022-07-17T14:05:49;1.65;;;0.30;;
42244;SDS011;27912;51.828;5.688;2022-07-17T14:08:14;3.05;;;0.40;;
42244;SDS011;27912;51.828;5.688;2022-07-17T14:10:40;3.13;;;0.40;;
42244;SDS011;27912;51.828;5.688;2022-07-17T14:13:06;3.90;;;0.60;;
42244;SDS011;27912;51.828;5.688;2022-07-17T14:15:32;2.58;;;0.70;;
42244;SDS011;27912;51.828;5.688;2022-07-17T14:17:57;2.50;;;0.40;;
42244;SDS011;27912;51.828;5.688;2022-07-17T14:20:23;3.20;;;0.38;;
42244;SDS011;27912;51.828;5.688;2022-07-17T14:22:49;1.08;;;0.30;;
42244;SDS011;27912;51.828;5.688;2022-07-17T14:25:14;2.03;;;0.47;;
42244;SDS011;27912;51.828;5.688;2022-07-17T14:27:40;2.20;;;0.30;;
42244;SDS011;27912;51.828;5.688;2022-07-17T14:30:06;4.38;;;0.43;;
42244;SDS011;27912;51.828;5.688;2022-07-17T14:32:32;1.52;;;0.30;;
42244;SDS011;27912;51.828;5.688;2022-07-17T14:34:57;2.40;;;0.47;;
42244;SDS011;27912;51.828;5.688;2022-07-17T14:37:23;1.85;;;0.40;;
42244;SDS011;27912;51.828;5.688;2022-07-17T14:39:49;2.40;;;0.30;;
42244;SDS011;27912;51.828;5.688;2022-07-17T14:42:14;1.95;;;0.55;;
42244;SDS011;27912;51.828;5.688;2022-07-17T14:44:40;4.65;;;1.17;;
42244;SDS011;27912;51.828;5.688;2022-07-17T14:47:05;3.10;;;0.70;;
42244;SDS011;27912;51.828;5.688;2022-07-17T14:49:32;1.88;;;0.50;;
42244;SDS011;27912;51.828;5.688;2022-07-17T14:51:58;4.68;;;0.60;;
42244;SDS011;27912;51.828;5.688;2022-07-17T14:54:23;2.72;;;0.50;;
42244;SDS011;27912;51.828;5.688;2022-07-17T14:56:49;1.08;;;0.43;;
42244;SDS011;27912;51.828;5.688;2022-07-17T14:59:15;1.60;;;0.57;;
42244;SDS011;27912;51.828;5.688;2022-07-17T15:01:40;2.25;;;0.50;;
42244;SDS011;27912;51.828;5.688;2022-07-17T15:04:06;2.60;;;0.70;;